sensor_id;sensor_type;location;lat;lon;timestamp;P1;durP1;ratioP1;P2;durP2;ratioP2
25870;SDS011;13689;48.590;7.752;2024-02-21T00:00:35;10.48;;;4.22;;
25870;SDS011;13689;48.590;7.752;2024-02-21T00:03:03;18.25;;;4.25;;
25870;SDS011;13689;48.590;7.752;2024-02-21T00:05:29;11.68;;;3.72;;
25870;SDS011;13689;48.590;7.752;2024-02-21T00:07:55;16.25;;;3.60;;
25870;SDS011;13689;48.590;7.752;2024-02-21T00:10:22;10.93;;;4.05;;
25870;SDS011;13689;48.590;7.752;2024-02-21T00:12:48;17.75;;;4.38;;
25870;SDS011;13689;48.590;7.752;2024-02-21T00:15:14;12.40;;;3.85;;
25870;SDS011;13689;48.590;7.752;2024-02-21T00:17:39;10.95;;;3.95;;
25870;SDS011;13689;48.590;7.752;2024-02-21T00:20:06;17.13;;;4.70;;
25870;SDS011;13689;48.590;7.752;2024-02-21T00:22:32;11.60;;;4.68;;
25870;SDS011;13689;48.590;7.752;2024-02-21T00:24:58;11.60;;;3.67;;
25870;SDS011;13689;48.590;7.752;2024-02-21T00:27:24;12.00;;;4.00;;
25870;SDS011;13689;48.590;7.752;2024-02-21T00:29:50;10.90;;;3.83;;
25870;SDS011;13689;48.590;7.752;2024-02-21T00:32:15;12.50;;;3.65;;
25870;SDS011;13689;48.590;7.752;2024-02-21T00:34:41;8.07;;;3.70;;
25870;SDS011;13689;48.590;7.752;2024-02-21T00:37:06;11.18;;;4.00;;
25870;SDS011;13689;48.590;7.752;2024-02-21T00:39:32;12.30;;;3.83;;
25870;SDS011;13689;48.590;7.752;2024-02-21T00:41:57;14.98;;;4.60;;
25870;SDS011;13689;48.590;7.752;2024-02-21T00:44:23;14.30;;;4.35;;
25870;SDS011;13689;48.590;7.752;2024-02-21T00:46:49;10.30;;;4.30;;
25870;SDS011;13689;48.590;7.752;2024-02-21T00:49:14;10.45;;;3.67;;
25870;SDS011;13689;48.590;7.752;2024-02-21T00:51:40;19.17;;;4.60;;
25870;SDS011;13689;48.590;7.752;2024-02-21T00:54:05;13.43;;;3.60;;
25870;SDS011;13689;48.590;7.752;2024-02-21T00:56:31;11.70;;;3.25;;
25870;SDS011;13689;48.590;7.752;2024-02-21T00:58:57;15.32;;;3.80;;
25870;SDS011;13689;48.590;7.752;2024-02-21T01:01:23;13.43;;;3.85;;
25870;SDS011;13689;48.590;7.752;2024-02-21T01:03:50;12.02;;;3.92;;
25870;SDS011;13689;48.590;7.752;2024-02-21T01:06:18;9.25;;;3.75;;
25870;SDS011;13689;48.590;7.752;2024-02-21T01:08:48;7.45;;;3.35;;
25870;SDS011;13689;48.590;7.752;2024-02-21T01:13:39;10.13;;;3.38;;
25870;SDS011;13689;48.590;7.752;2024-02-21T01:16:05;17.48;;;3.72;;
25870;SDS011;13689;48.590;7.752;2024-02-21T01:18:34;12.57;;;3.65;;
25870;SDS011;13689;48.590;7.752;2024-02-21T01:21:02;13.50;;;4.13;;
25870;SDS011;13689;48.590;7.752;2024-02-21T01:23:28;9.45;;;3.45;;
25870;SDS011;13689;48.590;7.752;2024-02-21T01:25:53;12.73;;;3.65;;
25870;SDS011;13689;48.590;7.752;2024-02-21T01:28:20;13.30;;;3.70;;
25870;SDS011;13689;48.590;7.752;2024-02-21T01:30:46;15.68;;;3.88;;
25870;SDS011;13689;48.590;7.752;2024-02-21T01:33:11;12.63;;;3.88;;
25870;SDS011;13689;48.590;7.752;2024-02-21T01:35:37;12.60;;;3.28;;
25870;SDS011;13689;48.590;7.752;2024-02-21T01:38:02;13.07;;;3.67;;
25870;SDS011;13689;48.590;7.752;2024-02-21T01:40:29;10.63;;;3.00;;
25870;SDS011;13689;48.590;7.752;2024-02-21T01:42:55;9.63;;;3.40;;
25870;SDS011;13689;48.590;7.752;2024-02-21T01:45:21;11.13;;;3.10;;
25870;SDS011;13689;48.590;7.752;2024-02-21T01:47:46;13.52;;;3.60;;
25870;SDS011;13689;48.590;7.752;2024-02-21T01:50:13;8.80;;;3.20;;
25870;SDS011;13689;48.590;7.752;2024-02-21T01:52:40;9.55;;;3.58;;
25870;SDS011;13689;48.590;7.752;2024-02-21T01:55:08;11.98;;;4.15;;
25870;SDS011;13689;48.590;7.752;2024-02-21T01:57:35;13.70;;;3.45;;
25870;SDS011;13689;48.590;7.752;2024-02-21T02:00:01;12.93;;;2.97;;
25870;SDS011;13689;48.590;7.752;2024-02-21T02:02:28;12.93;;;3.55;;
25870;SDS011;13689;48.590;7.752;2024-02-21T02:04:54;10.23;;;3.58;;
25870;SDS011;13689;48.590;7.752;2024-02-21T02:07:20;8.45;;;3.35;;
25870;SDS011;13689;48.590;7.752;2024-02-21T02:09:45;7.80;;;3.03;;
25870;SDS011;13689;48.590;7.752;2024-02-21T02:12:11;15.98;;;4.60;;
25870;SDS011;13689;48.590;7.752;2024-02-21T02:14:37;8.70;;;3.30;;
25870;SDS011;13689;48.590;7.752;2024-02-21T02:17:02;10.73;;;4.15;;
25870;SDS011;13689;48.590;7.752;2024-02-21T02:19:28;9.30;;;3.47;;
25870;SDS011;13689;48.590;7.752;2024-02-21T02:21:54;20.00;;;3.88;;
25870;SDS011;13689;48.590;7.752;2024-02-21T02:24:25;6.35;;;3.22;;
25870;SDS011;13689;48.590;7.752;2024-02-21T02:26:51;11.88;;;4.88;;
25870;SDS011;13689;48.590;7.752;2024-02-21T02:29:17;14.73;;;3.85;;
25870;SDS011;13689;48.590;7.752;2024-02-21T02:31:42;14.95;;;4.07;;
25870;SDS011;13689;48.590;7.752;2024-02-21T02:34:08;16.60;;;3.67;;
25870;SDS011;13689;48.590;7.752;2024-02-21T02:36:34;15.68;;;4.28;;
25870;SDS011;13689;48.590;7.752;2024-02-21T02:39:00;10.77;;;4.28;;
25870;SDS011;13689;48.590;7.752;2024-02-21T02:41:26;16.95;;;4.35;;
25870;SDS011;13689;48.590;7.752;2024-02-21T02:43:51;15.15;;;4.18;;
25870;SDS011;13689;48.590;7.752;2024-02-21T02:46:17;17.08;;;4.35;;
25870;SDS011;13689;48.590;7.752;2024-02-21T02:48:42;10.27;;;4.30;;
25870;SDS011;13689;48.590;7.752;2024-02-21T02:51:08;20.77;;;4.32;;
25870;SDS011;13689;48.590;7.752;2024-02-21T02:53:33;20.95;;;5.53;;
25870;SDS011;13689;48.590;7.752;2024-02-21T02:55:59;18.42;;;5.03;;
25870;SDS011;13689;48.590;7.752;2024-02-21T02:58:24;11.38;;;4.53;;
25870;SDS011;13689;48.590;7.752;2024-02-21T03:00:50;15.95;;;4.85;;
25870;SDS011;13689;48.590;7.752;2024-02-21T03:03:16;17.85;;;4.93;;
25870;SDS011;13689;48.590;7.752;2024-02-21T03:05:41;21.15;;;5.00;;
25870;SDS011;13689;48.590;7.752;2024-02-21T03:08:07;18.60;;;4.10;;
25870;SDS011;13689;48.590;7.752;2024-02-21T03:10:33;15.93;;;4.80;;
25870;SDS011;13689;48.590;7.752;2024-02-21T03:12:59;15.95;;;4.30;;
25870;SDS011;13689;48.590;7.752;2024-02-21T03:15:24;14.38;;;4.70;;
25870;SDS011;13689;48.590;7.752;2024-02-21T03:17:50;21.50;;;4.45;;
25870;SDS011;13689;48.590;7.752;2024-02-21T03:20:16;16.52;;;4.70;;
25870;SDS011;13689;48.590;7.752;2024-02-21T03:22:41;16.30;;;3.92;;
25870;SDS011;13689;48.590;7.752;2024-02-21T03:25:08;13.50;;;4.30;;
25870;SDS011;13689;48.590;7.752;2024-02-21T03:27:34;14.43;;;3.70;;
25870;SDS011;13689;48.590;7.752;2024-02-21T03:29:59;14.75;;;3.95;;
25870;SDS011;13689;48.590;7.752;2024-02-21T03:32:26;13.00;;;3.92;;
25870;SDS011;13689;48.590;7.752;2024-02-21T03:34:53;17.42;;;4.22;;
25870;SDS011;13689;48.590;7.752;2024-02-21T03:37:19;8.95;;;3.72;;
25870;SDS011;13689;48.590;7.752;2024-02-21T03:39:45;8.70;;;3.53;;
25870;SDS011;13689;48.590;7.752;2024-02-21T03:42:10;18.45;;;4.55;;
25870;SDS011;13689;48.590;7.752;2024-02-21T03:44:36;12.93;;;4.68;;
25870;SDS011;13689;48.590;7.752;2024-02-21T03:47:02;12.93;;;3.58;;
25870;SDS011;13689;48.590;7.752;2024-02-21T03:49:28;15.63;;;4.35;;
25870;SDS011;13689;48.590;7.752;2024-02-21T03:51:53;10.75;;;3.72;;
25870;SDS011;13689;48.590;7.752;2024-02-21T03:54:19;11.68;;;4.15;;
25870;SDS011;13689;48.590;7.752;2024-02-21T03:56:45;9.75;;;3.65;;
25870;SDS011;13689;48.590;7.752;2024-02-21T03:59:12;16.05;;;4.43;;
25870;SDS011;13689;48.590;7.752;2024-02-21T04:01:38;14.35;;;4.32;;
25870;SDS011;13689;48.590;7.752;2024-02-21T04:04:04;13.73;;;4.20;;
25870;SDS011;13689;48.590;7.752;2024-02-21T04:06:29;11.02;;;4.07;;
25870;SDS011;13689;48.590;7.752;2024-02-21T04:08:55;9.40;;;3.83;;
25870;SDS011;13689;48.590;7.752;2024-02-21T04:11:21;10.77;;;4.22;;
25870;SDS011;13689;48.590;7.752;2024-02-21T04:13:47;15.50;;;5.00;;
25870;SDS011;13689;48.590;7.752;2024-02-21T04:16:15;21.63;;;5.13;;
25870;SDS011;13689;48.590;7.752;2024-02-21T04:18:41;17.20;;;4.47;;
25870;SDS011;13689;48.590;7.752;2024-02-21T04:21:07;14.85;;;4.82;;
25870;SDS011;13689;48.590;7.752;2024-02-21T04:23:33;14.32;;;4.47;;
25870;SDS011;13689;48.590;7.752;2024-02-21T04:25:58;16.17;;;5.65;;
25870;SDS011;13689;48.590;7.752;2024-02-21T04:28:24;15.88;;;5.03;;
25870;SDS011;13689;48.590;7.752;2024-02-21T04:30:49;16.27;;;4.88;;
25870;SDS011;13689;48.590;7.752;2024-02-21T04:33:15;17.17;;;5.35;;
25870;SDS011;13689;48.590;7.752;2024-02-21T04:35:41;11.93;;;4.93;;
25870;SDS011;13689;48.590;7.752;2024-02-21T04:38:07;18.45;;;4.97;;
25870;SDS011;13689;48.590;7.752;2024-02-21T04:40:32;14.90;;;5.38;;
25870;SDS011;13689;48.590;7.752;2024-02-21T04:42:58;18.35;;;5.95;;
25870;SDS011;13689;48.590;7.752;2024-02-21T04:45:24;13.43;;;5.15;;
25870;SDS011;13689;48.590;7.752;2024-02-21T04:47:50;15.55;;;5.07;;
25870;SDS011;13689;48.590;7.752;2024-02-21T04:50:15;14.80;;;5.93;;
25870;SDS011;13689;48.590;7.752;2024-02-21T04:52:42;13.93;;;5.40;;
25870;SDS011;13689;48.590;7.752;2024-02-21T04:55:08;18.33;;;5.78;;
25870;SDS011;13689;48.590;7.752;2024-02-21T04:57:34;21.08;;;5.20;;
25870;SDS011;13689;48.590;7.752;2024-02-21T04:59:59;19.50;;;5.43;;
25870;SDS011;13689;48.590;7.752;2024-02-21T05:02:25;16.10;;;5.40;;
25870;SDS011;13689;48.590;7.752;2024-02-21T05:04:51;17.05;;;5.35;;
25870;SDS011;13689;48.590;7.752;2024-02-21T05:07:17;19.33;;;5.35;;
25870;SDS011;13689;48.590;7.752;2024-02-21T05:09:44;18.98;;;5.35;;
25870;SDS011;13689;48.590;7.752;2024-02-21T05:12:11;15.38;;;5.32;;
25870;SDS011;13689;48.590;7.752;2024-02-21T05:14:37;25.40;;;5.22;;
25870;SDS011;13689;48.590;7.752;2024-02-21T05:17:03;12.68;;;4.72;;
25870;SDS011;13689;48.590;7.752;2024-02-21T05:19:29;14.45;;;5.05;;
25870;SDS011;13689;48.590;7.752;2024-02-21T05:21:55;18.52;;;4.93;;
25870;SDS011;13689;48.590;7.752;2024-02-21T05:24:20;16.48;;;5.13;;
25870;SDS011;13689;48.590;7.752;2024-02-21T05:26:46;17.27;;;5.35;;
25870;SDS011;13689;48.590;7.752;2024-02-21T05:29:12;17.35;;;4.80;;
25870;SDS011;13689;48.590;7.752;2024-02-21T05:34:18;15.52;;;5.45;;
25870;SDS011;13689;48.590;7.752;2024-02-21T05:36:44;13.10;;;5.35;;
25870;SDS011;13689;48.590;7.752;2024-02-21T05:39:11;14.32;;;5.07;;
25870;SDS011;13689;48.590;7.752;2024-02-21T05:41:37;10.68;;;4.22;;
25870;SDS011;13689;48.590;7.752;2024-02-21T05:44:02;14.63;;;4.70;;
25870;SDS011;13689;48.590;7.752;2024-02-21T05:46:28;13.50;;;4.68;;
25870;SDS011;13689;48.590;7.752;2024-02-21T05:48:54;15.98;;;5.28;;
25870;SDS011;13689;48.590;7.752;2024-02-21T05:51:19;19.63;;;5.18;;
25870;SDS011;13689;48.590;7.752;2024-02-21T05:53:45;16.02;;;4.68;;
25870;SDS011;13689;48.590;7.752;2024-02-21T05:56:11;16.48;;;4.90;;
25870;SDS011;13689;48.590;7.752;2024-02-21T05:58:38;14.95;;;4.60;;
25870;SDS011;13689;48.590;7.752;2024-02-21T06:01:03;9.88;;;4.20;;
25870;SDS011;13689;48.590;7.752;2024-02-21T06:03:30;16.50;;;4.15;;
25870;SDS011;13689;48.590;7.752;2024-02-21T06:05:56;9.40;;;3.85;;
25870;SDS011;13689;48.590;7.752;2024-02-21T06:08:21;11.43;;;4.60;;
25870;SDS011;13689;48.590;7.752;2024-02-21T06:10:47;17.45;;;4.65;;
25870;SDS011;13689;48.590;7.752;2024-02-21T06:13:19;13.13;;;4.35;;
25870;SDS011;13689;48.590;7.752;2024-02-21T06:15:48;18.30;;;4.57;;
25870;SDS011;13689;48.590;7.752;2024-02-21T06:18:15;17.08;;;4.57;;
25870;SDS011;13689;48.590;7.752;2024-02-21T06:20:44;12.65;;;4.38;;
25870;SDS011;13689;48.590;7.752;2024-02-21T06:23:11;16.98;;;4.22;;
25870;SDS011;13689;48.590;7.752;2024-02-21T06:25:37;11.73;;;4.50;;
25870;SDS011;13689;48.590;7.752;2024-02-21T06:28:03;11.57;;;4.28;;
25870;SDS011;13689;48.590;7.752;2024-02-21T06:30:29;13.38;;;4.15;;
25870;SDS011;13689;48.590;7.752;2024-02-21T06:32:55;15.07;;;4.40;;
25870;SDS011;13689;48.590;7.752;2024-02-21T06:35:21;13.50;;;4.53;;
25870;SDS011;13689;48.590;7.752;2024-02-21T06:37:47;9.48;;;4.38;;
25870;SDS011;13689;48.590;7.752;2024-02-21T06:40:16;18.92;;;5.07;;
25870;SDS011;13689;48.590;7.752;2024-02-21T06:42:50;9.35;;;3.83;;
25870;SDS011;13689;48.590;7.752;2024-02-21T06:45:16;15.00;;;4.78;;
25870;SDS011;13689;48.590;7.752;2024-02-21T06:47:42;19.08;;;5.13;;
25870;SDS011;13689;48.590;7.752;2024-02-21T06:50:08;17.95;;;4.53;;
25870;SDS011;13689;48.590;7.752;2024-02-21T06:52:34;17.33;;;4.68;;
25870;SDS011;13689;48.590;7.752;2024-02-21T06:55:00;14.77;;;4.72;;
25870;SDS011;13689;48.590;7.752;2024-02-21T06:57:26;13.77;;;4.25;;
25870;SDS011;13689;48.590;7.752;2024-02-21T07:02:19;15.00;;;4.47;;
25870;SDS011;13689;48.590;7.752;2024-02-21T07:04:45;21.27;;;5.18;;
25870;SDS011;13689;48.590;7.752;2024-02-21T07:07:10;20.42;;;5.07;;
25870;SDS011;13689;48.590;7.752;2024-02-21T07:09:36;9.88;;;4.75;;
25870;SDS011;13689;48.590;7.752;2024-02-21T07:12:02;21.00;;;4.88;;
25870;SDS011;13689;48.590;7.752;2024-02-21T07:14:29;20.00;;;5.38;;
25870;SDS011;13689;48.590;7.752;2024-02-21T07:16:54;20.08;;;5.43;;
25870;SDS011;13689;48.590;7.752;2024-02-21T07:19:22;9.45;;;3.65;;
25870;SDS011;13689;48.590;7.752;2024-02-21T07:21:47;15.35;;;5.40;;
25870;SDS011;13689;48.590;7.752;2024-02-21T07:24:13;10.45;;;4.90;;
25870;SDS011;13689;48.590;7.752;2024-02-21T07:26:42;13.23;;;5.03;;
25870;SDS011;13689;48.590;7.752;2024-02-21T07:29:10;13.85;;;5.10;;
25870;SDS011;13689;48.590;7.752;2024-02-21T07:31:43;18.90;;;4.97;;
25870;SDS011;13689;48.590;7.752;2024-02-21T07:34:09;15.25;;;5.85;;
25870;SDS011;13689;48.590;7.752;2024-02-21T07:36:35;16.38;;;4.78;;
25870;SDS011;13689;48.590;7.752;2024-02-21T07:39:02;14.48;;;4.72;;
25870;SDS011;13689;48.590;7.752;2024-02-21T07:41:28;14.55;;;5.60;;
25870;SDS011;13689;48.590;7.752;2024-02-21T07:43:55;12.93;;;5.00;;
25870;SDS011;13689;48.590;7.752;2024-02-21T07:46:21;17.70;;;6.00;;
25870;SDS011;13689;48.590;7.752;2024-02-21T07:48:46;17.30;;;5.55;;
25870;SDS011;13689;48.590;7.752;2024-02-21T07:51:12;13.68;;;5.30;;
25870;SDS011;13689;48.590;7.752;2024-02-21T07:53:40;18.85;;;5.60;;
25870;SDS011;13689;48.590;7.752;2024-02-21T07:56:13;16.13;;;5.30;;
25870;SDS011;13689;48.590;7.752;2024-02-21T07:58:39;10.32;;;4.15;;
25870;SDS011;13689;48.590;7.752;2024-02-21T08:01:05;13.77;;;4.40;;
25870;SDS011;13689;48.590;7.752;2024-02-21T08:03:31;18.00;;;4.80;;
25870;SDS011;13689;48.590;7.752;2024-02-21T08:05:57;14.43;;;4.00;;
25870;SDS011;13689;48.590;7.752;2024-02-21T08:08:22;13.13;;;4.35;;
25870;SDS011;13689;48.590;7.752;2024-02-21T08:10:51;16.15;;;4.53;;
25870;SDS011;13689;48.590;7.752;2024-02-21T08:13:17;13.82;;;3.90;;
25870;SDS011;13689;48.590;7.752;2024-02-21T08:15:42;14.55;;;4.63;;
25870;SDS011;13689;48.590;7.752;2024-02-21T08:18:08;18.52;;;4.32;;
25870;SDS011;13689;48.590;7.752;2024-02-21T08:20:34;15.18;;;3.88;;
25870;SDS011;13689;48.590;7.752;2024-02-21T08:23:00;17.58;;;4.20;;
25870;SDS011;13689;48.590;7.752;2024-02-21T08:25:25;13.60;;;4.15;;
25870;SDS011;13689;48.590;7.752;2024-02-21T08:27:51;14.65;;;3.25;;
25870;SDS011;13689;48.590;7.752;2024-02-21T08:30:18;11.20;;;3.83;;
25870;SDS011;13689;48.590;7.752;2024-02-21T08:32:45;16.13;;;3.70;;
25870;SDS011;13689;48.590;7.752;2024-02-21T08:35:10;13.65;;;3.88;;
25870;SDS011;13689;48.590;7.752;2024-02-21T08:37:37;14.48;;;3.92;;
25870;SDS011;13689;48.590;7.752;2024-02-21T08:40:02;12.70;;;3.45;;
25870;SDS011;13689;48.590;7.752;2024-02-21T08:42:33;17.42;;;4.38;;
25870;SDS011;13689;48.590;7.752;2024-02-21T08:45:04;14.10;;;3.78;;
25870;SDS011;13689;48.590;7.752;2024-02-21T08:47:30;13.43;;;3.80;;
25870;SDS011;13689;48.590;7.752;2024-02-21T08:49:55;16.73;;;4.35;;
25870;SDS011;13689;48.590;7.752;2024-02-21T08:52:21;12.02;;;3.65;;
25870;SDS011;13689;48.590;7.752;2024-02-21T08:54:47;13.18;;;3.53;;
25870;SDS011;13689;48.590;7.752;2024-02-21T08:57:12;10.93;;;3.53;;
25870;SDS011;13689;48.590;7.752;2024-02-21T08:59:39;16.45;;;4.05;;
25870;SDS011;13689;48.590;7.752;2024-02-21T09:02:05;12.48;;;3.80;;
25870;SDS011;13689;48.590;7.752;2024-02-21T09:04:32;10.98;;;3.45;;
25870;SDS011;13689;48.590;7.752;2024-02-21T09:06:58;19.08;;;7.18;;
25870;SDS011;13689;48.590;7.752;2024-02-21T09:09:23;16.88;;;3.95;;
25870;SDS011;13689;48.590;7.752;2024-02-21T09:11:49;12.23;;;3.53;;
25870;SDS011;13689;48.590;7.752;2024-02-21T09:14:15;10.13;;;3.13;;
25870;SDS011;13689;48.590;7.752;2024-02-21T09:16:40;12.52;;;3.80;;
25870;SDS011;13689;48.590;7.752;2024-02-21T09:19:06;11.32;;;3.30;;
25870;SDS011;13689;48.590;7.752;2024-02-21T09:21:35;14.43;;;3.33;;
25870;SDS011;13689;48.590;7.752;2024-02-21T09:24:01;12.18;;;3.00;;
25870;SDS011;13689;48.590;7.752;2024-02-21T09:26:27;9.20;;;3.00;;
25870;SDS011;13689;48.590;7.752;2024-02-21T09:28:53;7.97;;;3.10;;
25870;SDS011;13689;48.590;7.752;2024-02-21T09:31:19;7.38;;;2.53;;
25870;SDS011;13689;48.590;7.752;2024-02-21T09:33:44;13.07;;;3.50;;
25870;SDS011;13689;48.590;7.752;2024-02-21T09:36:10;9.45;;;2.95;;
25870;SDS011;13689;48.590;7.752;2024-02-21T09:38:36;10.88;;;2.92;;
25870;SDS011;13689;48.590;7.752;2024-02-21T09:41:04;9.82;;;2.97;;
25870;SDS011;13689;48.590;7.752;2024-02-21T09:43:37;13.55;;;2.78;;
25870;SDS011;13689;48.590;7.752;2024-02-21T09:46:06;6.75;;;2.33;;
25870;SDS011;13689;48.590;7.752;2024-02-21T09:51:15;11.13;;;2.37;;
25870;SDS011;13689;48.590;7.752;2024-02-21T09:53:43;9.98;;;2.33;;
25870;SDS011;13689;48.590;7.752;2024-02-21T09:56:10;5.25;;;1.98;;
25870;SDS011;13689;48.590;7.752;2024-02-21T09:58:38;8.43;;;2.20;;
25870;SDS011;13689;48.590;7.752;2024-02-21T10:01:06;7.30;;;2.75;;
25870;SDS011;13689;48.590;7.752;2024-02-21T10:03:32;4.70;;;2.45;;
25870;SDS011;13689;48.590;7.752;2024-02-21T10:05:58;10.00;;;2.65;;
25870;SDS011;13689;48.590;7.752;2024-02-21T10:08:26;8.80;;;2.67;;
25870;SDS011;13689;48.590;7.752;2024-02-21T10:10:52;11.90;;;2.45;;
25870;SDS011;13689;48.590;7.752;2024-02-21T10:13:30;7.88;;;2.03;;
25870;SDS011;13689;48.590;7.752;2024-02-21T10:16:06;6.55;;;2.20;;
25870;SDS011;13689;48.590;7.752;2024-02-21T10:18:33;15.38;;;3.08;;
25870;SDS011;13689;48.590;7.752;2024-02-21T10:21:00;9.95;;;2.67;;
25870;SDS011;13689;48.590;7.752;2024-02-21T10:23:26;11.50;;;2.87;;
25870;SDS011;13689;48.590;7.752;2024-02-21T10:25:52;7.00;;;2.47;;
25870;SDS011;13689;48.590;7.752;2024-02-21T10:28:18;8.40;;;2.47;;
25870;SDS011;13689;48.590;7.752;2024-02-21T10:30:51;10.65;;;2.70;;
25870;SDS011;13689;48.590;7.752;2024-02-21T10:33:17;13.68;;;2.90;;
25870;SDS011;13689;48.590;7.752;2024-02-21T10:36:09;13.25;;;3.15;;
25870;SDS011;13689;48.590;7.752;2024-02-21T10:38:39;10.32;;;2.40;;
25870;SDS011;13689;48.590;7.752;2024-02-21T10:41:07;4.90;;;2.25;;
25870;SDS011;13689;48.590;7.752;2024-02-21T10:43:39;9.40;;;2.50;;
25870;SDS011;13689;48.590;7.752;2024-02-21T10:46:08;11.53;;;2.53;;
25870;SDS011;13689;48.590;7.752;2024-02-21T10:48:38;16.88;;;6.90;;
25870;SDS011;13689;48.590;7.752;2024-02-21T10:51:14;45.22;;;16.00;;
25870;SDS011;13689;48.590;7.752;2024-02-21T10:56:28;8.70;;;2.35;;
25870;SDS011;13689;48.590;7.752;2024-02-21T10:58:55;8.23;;;2.97;;
25870;SDS011;13689;48.590;7.752;2024-02-21T11:03:51;8.00;;;2.40;;
25870;SDS011;13689;48.590;7.752;2024-02-21T11:06:19;11.18;;;2.50;;
25870;SDS011;13689;48.590;7.752;2024-02-21T11:08:46;5.63;;;2.17;;
25870;SDS011;13689;48.590;7.752;2024-02-21T11:11:13;6.40;;;2.50;;
25870;SDS011;13689;48.590;7.752;2024-02-21T11:13:47;6.28;;;2.67;;
25870;SDS011;13689;48.590;7.752;2024-02-21T11:16:21;11.07;;;2.60;;
25870;SDS011;13689;48.590;7.752;2024-02-21T11:18:47;8.95;;;2.38;;
25870;SDS011;13689;48.590;7.752;2024-02-21T11:21:13;9.25;;;2.53;;
25870;SDS011;13689;48.590;7.752;2024-02-21T11:23:39;10.75;;;2.10;;
25870;SDS011;13689;48.590;7.752;2024-02-21T11:26:18;7.45;;;2.33;;
25870;SDS011;13689;48.590;7.752;2024-02-21T11:28:44;14.00;;;3.08;;
25870;SDS011;13689;48.590;7.752;2024-02-21T11:31:20;14.50;;;2.53;;
25870;SDS011;13689;48.590;7.752;2024-02-21T11:33:46;9.15;;;2.35;;
25870;SDS011;13689;48.590;7.752;2024-02-21T11:36:24;7.72;;;2.63;;
25870;SDS011;13689;48.590;7.752;2024-02-21T11:38:51;10.75;;;2.33;;
25870;SDS011;13689;48.590;7.752;2024-02-21T11:41:17;8.15;;;2.63;;
25870;SDS011;13689;48.590;7.752;2024-02-21T11:43:43;7.85;;;2.55;;
25870;SDS011;13689;48.590;7.752;2024-02-21T11:46:08;11.57;;;2.63;;
25870;SDS011;13689;48.590;7.752;2024-02-21T11:48:34;5.18;;;2.30;;
25870;SDS011;13689;48.590;7.752;2024-02-21T11:51:00;13.60;;;3.65;;
25870;SDS011;13689;48.590;7.752;2024-02-21T11:53:26;14.32;;;2.95;;
25870;SDS011;13689;48.590;7.752;2024-02-21T11:55:55;12.40;;;2.67;;
25870;SDS011;13689;48.590;7.752;2024-02-21T11:58:21;7.28;;;2.35;;
25870;SDS011;13689;48.590;7.752;2024-02-21T12:00:47;7.85;;;2.22;;
25870;SDS011;13689;48.590;7.752;2024-02-21T12:03:14;8.48;;;2.70;;
25870;SDS011;13689;48.590;7.752;2024-02-21T12:05:40;9.60;;;2.28;;
25870;SDS011;13689;48.590;7.752;2024-02-21T12:08:06;10.63;;;2.50;;
25870;SDS011;13689;48.590;7.752;2024-02-21T12:10:34;7.88;;;2.58;;
25870;SDS011;13689;48.590;7.752;2024-02-21T12:13:07;8.70;;;2.20;;
25870;SDS011;13689;48.590;7.752;2024-02-21T12:15:33;9.13;;;2.58;;
25870;SDS011;13689;48.590;7.752;2024-02-21T12:17:59;12.27;;;2.72;;
25870;SDS011;13689;48.590;7.752;2024-02-21T12:20:25;8.90;;;2.53;;
25870;SDS011;13689;48.590;7.752;2024-02-21T12:22:51;7.97;;;2.30;;
25870;SDS011;13689;48.590;7.752;2024-02-21T12:25:19;15.93;;;2.65;;
25870;SDS011;13689;48.590;7.752;2024-02-21T12:27:51;11.52;;;2.63;;
25870;SDS011;13689;48.590;7.752;2024-02-21T12:30:16;11.20;;;2.60;;
25870;SDS011;13689;48.590;7.752;2024-02-21T12:32:42;7.35;;;2.55;;
25870;SDS011;13689;48.590;7.752;2024-02-21T12:35:08;12.00;;;2.67;;
25870;SDS011;13689;48.590;7.752;2024-02-21T12:37:34;10.07;;;2.70;;
25870;SDS011;13689;48.590;7.752;2024-02-21T12:39:59;10.55;;;2.65;;
25870;SDS011;13689;48.590;7.752;2024-02-21T12:42:25;11.52;;;2.55;;
25870;SDS011;13689;48.590;7.752;2024-02-21T12:44:54;11.00;;;2.50;;
25870;SDS011;13689;48.590;7.752;2024-02-21T12:47:20;8.07;;;2.60;;
25870;SDS011;13689;48.590;7.752;2024-02-21T12:49:48;8.63;;;2.47;;
25870;SDS011;13689;48.590;7.752;2024-02-21T12:52:14;9.75;;;2.38;;
25870;SDS011;13689;48.590;7.752;2024-02-21T12:54:40;8.82;;;2.75;;
25870;SDS011;13689;48.590;7.752;2024-02-21T12:57:05;12.10;;;2.47;;
25870;SDS011;13689;48.590;7.752;2024-02-21T12:59:31;12.20;;;2.47;;
25870;SDS011;13689;48.590;7.752;2024-02-21T13:01:56;11.10;;;2.75;;
25870;SDS011;13689;48.590;7.752;2024-02-21T13:04:22;11.18;;;3.33;;
25870;SDS011;13689;48.590;7.752;2024-02-21T13:06:48;9.55;;;2.90;;
25870;SDS011;13689;48.590;7.752;2024-02-21T13:09:14;9.68;;;2.58;;
25870;SDS011;13689;48.590;7.752;2024-02-21T13:11:40;9.18;;;2.78;;
25870;SDS011;13689;48.590;7.752;2024-02-21T13:14:07;11.60;;;2.80;;
25870;SDS011;13689;48.590;7.752;2024-02-21T13:16:32;9.48;;;2.20;;
25870;SDS011;13689;48.590;7.752;2024-02-21T13:19:04;10.13;;;2.22;;
25870;SDS011;13689;48.590;7.752;2024-02-21T13:21:30;9.35;;;2.65;;
25870;SDS011;13689;48.590;7.752;2024-02-21T13:23:56;6.82;;;2.13;;
25870;SDS011;13689;48.590;7.752;2024-02-21T13:26:22;13.82;;;2.65;;
25870;SDS011;13689;48.590;7.752;2024-02-21T13:28:47;6.35;;;1.65;;
25870;SDS011;13689;48.590;7.752;2024-02-21T13:31:13;8.63;;;1.90;;
25870;SDS011;13689;48.590;7.752;2024-02-21T13:33:41;10.70;;;2.30;;
25870;SDS011;13689;48.590;7.752;2024-02-21T13:36:07;11.25;;;2.10;;
25870;SDS011;13689;48.590;7.752;2024-02-21T13:38:33;6.35;;;2.38;;
25870;SDS011;13689;48.590;7.752;2024-02-21T13:40:58;9.85;;;2.30;;
25870;SDS011;13689;48.590;7.752;2024-02-21T13:43:25;5.78;;;1.90;;
25870;SDS011;13689;48.590;7.752;2024-02-21T13:45:57;8.07;;;1.67;;
25870;SDS011;13689;48.590;7.752;2024-02-21T13:48:24;8.68;;;1.90;;
25870;SDS011;13689;48.590;7.752;2024-02-21T13:50:50;8.77;;;1.60;;
25870;SDS011;13689;48.590;7.752;2024-02-21T13:53:15;10.73;;;1.80;;
25870;SDS011;13689;48.590;7.752;2024-02-21T13:55:43;10.35;;;2.55;;
25870;SDS011;13689;48.590;7.752;2024-02-21T13:58:09;4.90;;;1.40;;
25870;SDS011;13689;48.590;7.752;2024-02-21T14:00:35;6.60;;;1.73;;
25870;SDS011;13689;48.590;7.752;2024-02-21T14:03:02;4.82;;;1.42;;
25870;SDS011;13689;48.590;7.752;2024-02-21T14:05:28;6.15;;;1.70;;
25870;SDS011;13689;48.590;7.752;2024-02-21T14:07:54;6.38;;;1.58;;
25870;SDS011;13689;48.590;7.752;2024-02-21T14:10:20;4.57;;;1.73;;
25870;SDS011;13689;48.590;7.752;2024-02-21T14:12:46;8.43;;;1.92;;
25870;SDS011;13689;48.590;7.752;2024-02-21T14:15:12;8.30;;;2.10;;
25870;SDS011;13689;48.590;7.752;2024-02-21T14:17:38;9.15;;;2.55;;
25870;SDS011;13689;48.590;7.752;2024-02-21T14:20:04;7.35;;;1.50;;
25870;SDS011;13689;48.590;7.752;2024-02-21T14:22:31;10.30;;;1.63;;
25870;SDS011;13689;48.590;7.752;2024-02-21T14:24:57;5.28;;;1.92;;
25870;SDS011;13689;48.590;7.752;2024-02-21T14:27:22;7.95;;;1.65;;
25870;SDS011;13689;48.590;7.752;2024-02-21T14:29:48;6.35;;;1.65;;
25870;SDS011;13689;48.590;7.752;2024-02-21T14:32:13;7.85;;;1.85;;
25870;SDS011;13689;48.590;7.752;2024-02-21T14:34:39;5.43;;;1.40;;
25870;SDS011;13689;48.590;7.752;2024-02-21T14:37:06;4.73;;;1.57;;
25870;SDS011;13689;48.590;7.752;2024-02-21T14:39:32;6.38;;;1.42;;
25870;SDS011;13689;48.590;7.752;2024-02-21T14:41:59;3.40;;;1.58;;
25870;SDS011;13689;48.590;7.752;2024-02-21T14:44:25;7.55;;;1.60;;
25870;SDS011;13689;48.590;7.752;2024-02-21T14:46:52;5.47;;;1.45;;
25870;SDS011;13689;48.590;7.752;2024-02-21T14:49:17;9.13;;;2.20;;